createdAt,value
2023-01-07T00:03:16.072Z,99362.45
2023-01-07T00:16:21.762Z,99366.87
2023-01-07T00:29:44.306Z,99372.08
2023-01-07T00:44:02.327Z,99382.34
2023-01-07T00:51:32.758Z,99386.12
2023-01-07T01:39:27.679Z,99406.81
2023-01-07T01:53:49.991Z,99415.58
2023-01-07T02:10:15.969Z,99418.88
2023-01-07T02:15:19.014Z,99424.01
2023-01-07T02:21:40.153Z,99422.52
2023-01-07T02:34:59.725Z,99432.89
2023-01-07T03:10:49.217Z,99444.63
2023-01-07T03:17:10.448Z,99449.58
2023-01-07T03:23:10.485Z,99442.60
2023-01-07T03:36:24.791Z,99444.18
2023-01-07T03:55:10.583Z,99438.94
2023-01-07T04:01:28.726Z,99439.08
2023-01-07T04:07:36.386Z,99433.65
2023-01-07T04:14:05.279Z,99433.85
2023-01-07T04:20:22.453Z,99442.35
2023-01-07T04:26:44.468Z,99443.35
2023-01-07T04:35:06.434Z,99445.27
2023-01-07T04:40:31.250Z,99451.70
2023-01-07T04:57:42.239Z,99438.23
2023-01-07T05:11:21.556Z,99464.20
2023-01-07T05:18:19.082Z,99468.88
2023-01-07T05:25:40.813Z,99476.31
2023-01-07T05:45:16.280Z,99475.02
2023-01-07T05:52:09.772Z,99479.36
2023-01-07T06:06:28.211Z,99498.35
2023-01-07T06:20:08.215Z,99492.27
2023-01-07T06:26:41.302Z,99501.06
2023-01-07T06:32:50.387Z,99507.40
2023-01-07T06:39:36.613Z,99513.59
2023-01-07T06:45:27.068Z,99514.34
2023-01-07T06:51:37.614Z,99514.71
2023-01-07T07:04:56.502Z,99515.14
2023-01-07T07:17:15.755Z,99517.04
2023-01-07T07:34:09.750Z,99516.85
2023-01-07T07:40:05.603Z,99514.27
2023-01-07T07:46:56.418Z,99520.67
2023-01-07T09:05:54.599Z,99514.15
2023-01-07T09:11:43.430Z,99517.48
2023-01-07T10:17:49.989Z,99503.41
2023-01-07T10:23:55.428Z,99493.88
2023-01-07T10:37:28.131Z,99473.18
2023-01-07T10:44:21.050Z,99464.23
2023-01-07T10:56:43.969Z,99454.10
2023-01-07T11:01:59.396Z,99446.43
2023-01-07T11:14:54.042Z,99445.92
2023-01-07T11:27:35.575Z,99435.77
2023-01-07T11:40:31.613Z,99424.44
2023-01-07T11:46:57.411Z,99413.78
2023-01-07T11:52:20.648Z,99405.39
2023-01-07T12:04:33.789Z,99388.27
2023-01-07T12:10:19.742Z,99387.31
2023-01-07T12:16:20.472Z,99382.33
2023-01-07T12:22:26.787Z,99377.38
2023-01-07T12:28:37.191Z,99365.67
2023-01-07T12:34:17.557Z,99357.61
2023-01-07T12:40:23.767Z,99354.96
2023-01-07T12:46:11.224Z,99345.58
2023-01-07T12:54:00.512Z,99343.99
2023-01-07T12:59:45.941Z,99343.50
2023-01-07T13:06:06.705Z,99338.21
2023-01-07T13:12:08.357Z,99336.56
2023-01-07T13:18:23.478Z,99329.66
2023-01-07T13:24:55.584Z,99330.65
2023-01-07T13:30:57.259Z,99327.73
2023-01-07T13:37:03.722Z,99329.25
2023-01-07T13:42:38.107Z,99329.73
2023-01-07T13:49:18.380Z,99330.11
2023-01-07T14:00:54.445Z,99327.08
2023-01-07T14:06:40.141Z,99327.96
2023-01-07T14:12:26.912Z,99326.55
2023-01-07T14:18:55.222Z,99321.73
2023-01-07T14:24:36.043Z,99327.21
2023-01-07T14:30:30.352Z,99326.72
2023-01-07T14:36:21.480Z,99322.27
2023-01-07T14:43:00.738Z,99318.44
2023-01-07T14:48:36.463Z,99314.00
2023-01-07T14:54:34.242Z,99311.46
2023-01-07T15:00:52.350Z,99310.39
2023-01-07T15:09:52.737Z,99310.00
2023-01-07T15:55:34.584Z,99317.03
2023-01-07T16:01:23.823Z,99304.23
2023-01-07T16:07:20.500Z,99299.22
2023-01-07T16:13:45.598Z,99294.30
2023-01-07T16:19:44.575Z,99293.66
2023-01-07T16:26:08.975Z,99290.20
2023-01-07T16:32:10.125Z,99278.34
2023-01-07T16:38:25.201Z,99272.79
2023-01-07T16:44:43.521Z,99272.14
2023-01-07T16:50:53.446Z,99269.31
2023-01-07T18:02:52.731Z,99251.02
2023-01-07T18:08:34.364Z,99251.17
2023-01-07T18:22:02.226Z,99249.17
2023-01-07T18:28:27.463Z,99253.51
2023-01-07T18:35:20.121Z,99258.39
2023-01-07T19:08:13.605Z,99260.13
2023-01-07T19:14:29.008Z,99256.84
2023-01-07T19:20:15.131Z,99259.02
2023-01-07T19:25:59.641Z,99263.48
2023-01-07T19:32:23.920Z,99262.56
2023-01-07T19:38:08.090Z,99264.16
2023-01-07T19:56:03.311Z,99254.67
2023-01-07T20:01:33.257Z,99248.49
2023-01-07T20:08:28.185Z,99251.82
2023-01-07T20:21:27.859Z,99253.62
2023-01-07T20:26:49.677Z,99244.59
2023-01-07T20:32:42.020Z,99233.11
2023-01-07T20:38:12.896Z,99236.56
2023-01-07T20:44:34.226Z,99231.48
2023-01-07T20:50:59.526Z,99232.85
2023-01-07T20:56:26.449Z,99230.13
2023-01-07T21:02:43.899Z,99226.56
2023-01-07T21:09:00.864Z,99224.88
2023-01-07T21:15:16.638Z,99225.86
2023-01-07T21:21:23.202Z,99224.23
2023-01-07T21:28:04.774Z,99231.21
2023-01-07T21:35:08.296Z,99231.56
2023-01-07T21:47:50.605Z,99233.89
2023-01-07T22:01:40.346Z,99220.51
2023-01-07T22:49:15.672Z,99191.48
2023-01-07T22:55:47.849Z,99194.54
2023-01-07T23:01:43.416Z,99172.26
2023-01-07T23:08:00.490Z,99168.66
2023-01-07T23:14:48.198Z,99163.38
2023-01-07T23:21:11.835Z,99157.59
2023-01-07T23:28:34.071Z,99142.20
2023-01-07T23:34:32.756Z,99138.47
2023-01-07T23:50:40.635Z,99122.31
2023-01-07T23:55:24.444Z,99116.60
